sensor_id;sensor_type;location;lat;lon;timestamp;pressure;altitude;pressure_sealevel;temperature;humidity
50368;BME280;36281;34.132;-118.018;2022-10-26T00:01:37;99985.06;;;25.67;22.67
50368;BME280;36281;34.132;-118.018;2022-10-26T00:04:07;99986.59;;;25.60;22.69
50368;BME280;36281;34.132;-118.018;2022-10-26T00:06:35;99985.94;;;25.54;22.64
50368;BME280;36281;34.132;-118.018;2022-10-26T00:09:04;99983.84;;;25.51;22.98
50368;BME280;36281;34.132;-118.018;2022-10-26T00:11:32;99984.56;;;25.43;23.27
50368;BME280;36281;34.132;-118.018;2022-10-26T00:14:00;99976.25;;;25.39;23.52
50368;BME280;36281;34.132;-118.018;2022-10-26T00:16:28;99975.38;;;25.30;24.09
50368;BME280;36281;34.132;-118.018;2022-10-26T00:18:56;99977.22;;;25.21;23.52
50368;BME280;36281;34.132;-118.018;2022-10-26T00:21:26;99984.66;;;25.15;23.94
50368;BME280;36281;34.132;-118.018;2022-10-26T00:23:54;99984.78;;;25.10;23.83
50368;BME280;36281;34.132;-118.018;2022-10-26T00:26:23;99983.56;;;25.02;23.80
50368;BME280;36281;34.132;-118.018;2022-10-26T00:28:52;99979.66;;;24.95;24.24
50368;BME280;36281;34.132;-118.018;2022-10-26T00:31:20;99972.97;;;24.92;24.23
50368;BME280;36281;34.132;-118.018;2022-10-26T00:33:51;99971.75;;;24.85;24.46
50368;BME280;36281;34.132;-118.018;2022-10-26T00:36:19;99973.78;;;24.79;24.46
50368;BME280;36281;34.132;-118.018;2022-10-26T00:38:49;99973.56;;;24.75;24.27
50368;BME280;36281;34.132;-118.018;2022-10-26T00:41:18;99985.63;;;24.69;24.15
50368;BME280;36281;34.132;-118.018;2022-10-26T00:43:47;99981.13;;;24.65;25.18
50368;BME280;36281;34.132;-118.018;2022-10-26T00:46:16;99972.59;;;24.58;24.43
50368;BME280;36281;34.132;-118.018;2022-10-26T00:48:46;99970.28;;;24.51;24.46
50368;BME280;36281;34.132;-118.018;2022-10-26T00:51:18;99971.00;;;24.43;25.02
50368;BME280;36281;34.132;-118.018;2022-10-26T00:53:49;99978.72;;;24.36;25.38
50368;BME280;36281;34.132;-118.018;2022-10-26T00:56:18;99972.06;;;24.28;25.58
50368;BME280;36281;34.132;-118.018;2022-10-26T00:58:46;99973.56;;;24.20;25.72
50368;BME280;36281;34.132;-118.018;2022-10-26T01:01:15;99971.84;;;24.11;25.47
50368;BME280;36281;34.132;-118.018;2022-10-26T01:03:43;99985.56;;;24.01;25.93
50368;BME280;36281;34.132;-118.018;2022-10-26T01:06:12;99974.66;;;23.92;26.65
50368;BME280;36281;34.132;-118.018;2022-10-26T01:08:41;99977.22;;;23.83;26.51
50368;BME280;36281;34.132;-118.018;2022-10-26T01:11:11;99971.69;;;23.75;25.77
50368;BME280;36281;34.132;-118.018;2022-10-26T01:13:40;99979.38;;;23.67;26.51
50368;BME280;36281;34.132;-118.018;2022-10-26T01:16:29;99984.84;;;23.62;26.82
50368;BME280;36281;34.132;-118.018;2022-10-26T01:19:11;99979.88;;;23.51;27.22
50368;BME280;36281;34.132;-118.018;2022-10-26T01:21:47;99991.66;;;23.41;27.79
50368;BME280;36281;34.132;-118.018;2022-10-26T01:24:22;99988.00;;;23.32;27.58
50368;BME280;36281;34.132;-118.018;2022-10-26T01:27:03;99977.66;;;23.20;27.77
50368;BME280;36281;34.132;-118.018;2022-10-26T01:29:41;99990.44;;;23.14;27.33
50368;BME280;36281;34.132;-118.018;2022-10-26T01:32:17;99982.47;;;23.04;27.40
50368;BME280;36281;34.132;-118.018;2022-10-26T01:34:50;99986.34;;;22.98;28.09
50368;BME280;36281;34.132;-118.018;2022-10-26T01:37:23;99981.88;;;22.88;28.38
50368;BME280;36281;34.132;-118.018;2022-10-26T01:39:53;99989.28;;;22.78;29.23
50368;BME280;36281;34.132;-118.018;2022-10-26T01:42:26;99992.84;;;22.73;29.34
50368;BME280;36281;34.132;-118.018;2022-10-26T01:44:55;99996.97;;;22.65;29.09
50368;BME280;36281;34.132;-118.018;2022-10-26T01:47:28;100001.22;;;22.48;29.90
50368;BME280;36281;34.132;-118.018;2022-10-26T01:49:57;100003.75;;;22.39;30.63
50368;BME280;36281;34.132;-118.018;2022-10-26T01:52:26;100014.88;;;22.32;31.39
50368;BME280;36281;34.132;-118.018;2022-10-26T01:54:59;100013.38;;;22.21;31.30
50368;BME280;36281;34.132;-118.018;2022-10-26T01:57:27;100023.19;;;22.07;31.32
50368;BME280;36281;34.132;-118.018;2022-10-26T02:00:01;100021.13;;;21.99;31.81
50368;BME280;36281;34.132;-118.018;2022-10-26T02:02:41;100027.66;;;21.87;31.93
50368;BME280;36281;34.132;-118.018;2022-10-26T02:05:24;100037.22;;;21.75;32.81
50368;BME280;36281;34.132;-118.018;2022-10-26T02:07:59;100043.28;;;21.56;33.58
50368;BME280;36281;34.132;-118.018;2022-10-26T02:10:38;100049.25;;;21.53;33.69
50368;BME280;36281;34.132;-118.018;2022-10-26T02:13:13;100048.22;;;21.44;33.62
50368;BME280;36281;34.132;-118.018;2022-10-26T02:15:45;100050.44;;;21.32;33.99
50368;BME280;36281;34.132;-118.018;2022-10-26T02:18:19;100055.31;;;21.25;34.60
50368;BME280;36281;34.132;-118.018;2022-10-26T02:20:52;100058.56;;;21.16;34.73
50368;BME280;36281;34.132;-118.018;2022-10-26T02:23:22;100050.81;;;21.05;35.09
50368;BME280;36281;34.132;-118.018;2022-10-26T02:25:53;100050.03;;;20.99;35.60
50368;BME280;36281;34.132;-118.018;2022-10-26T02:28:23;100041.44;;;20.92;35.31
50368;BME280;36281;34.132;-118.018;2022-10-26T02:30:54;100042.56;;;20.81;36.18
50368;BME280;36281;34.132;-118.018;2022-10-26T02:33:27;100047.44;;;20.74;35.89
50368;BME280;36281;34.132;-118.018;2022-10-26T02:35:57;100043.16;;;20.62;36.54
50368;BME280;36281;34.132;-118.018;2022-10-26T02:38:26;100049.91;;;20.55;36.67
50368;BME280;36281;34.132;-118.018;2022-10-26T02:40:56;100055.81;;;20.42;36.67
50368;BME280;36281;34.132;-118.018;2022-10-26T02:43:24;100052.09;;;20.27;36.58
50368;BME280;36281;34.132;-118.018;2022-10-26T02:45:55;100048.88;;;20.20;37.07
50368;BME280;36281;34.132;-118.018;2022-10-26T02:48:26;100045.63;;;20.13;37.39
50368;BME280;36281;34.132;-118.018;2022-10-26T02:50:56;100045.94;;;20.01;38.32
50368;BME280;36281;34.132;-118.018;2022-10-26T02:53:28;100049.69;;;19.95;38.04
50368;BME280;36281;34.132;-118.018;2022-10-26T02:55:58;100047.81;;;19.91;38.19
50368;BME280;36281;34.132;-118.018;2022-10-26T02:58:27;100047.00;;;19.85;38.65
50368;BME280;36281;34.132;-118.018;2022-10-26T03:00:56;100049.13;;;19.78;38.77
50368;BME280;36281;34.132;-118.018;2022-10-26T03:03:26;100047.25;;;19.68;38.95
50368;BME280;36281;34.132;-118.018;2022-10-26T03:05:54;100039.94;;;19.58;39.75
50368;BME280;36281;34.132;-118.018;2022-10-26T03:08:23;100051.25;;;19.55;39.79
50368;BME280;36281;34.132;-118.018;2022-10-26T03:10:51;100052.84;;;19.51;40.00
50368;BME280;36281;34.132;-118.018;2022-10-26T03:13:19;100047.47;;;19.46;39.61
50368;BME280;36281;34.132;-118.018;2022-10-26T03:15:47;100045.84;;;19.40;39.43
50368;BME280;36281;34.132;-118.018;2022-10-26T03:18:15;100043.66;;;19.32;39.75
50368;BME280;36281;34.132;-118.018;2022-10-26T03:20:45;100049.53;;;19.24;40.16
50368;BME280;36281;34.132;-118.018;2022-10-26T03:23:13;100054.09;;;19.18;40.65
50368;BME280;36281;34.132;-118.018;2022-10-26T03:25:42;100046.31;;;19.17;40.84
50368;BME280;36281;34.132;-118.018;2022-10-26T03:28:10;100051.66;;;19.11;40.78
50368;BME280;36281;34.132;-118.018;2022-10-26T03:30:38;100058.09;;;19.05;40.80
50368;BME280;36281;34.132;-118.018;2022-10-26T03:33:06;100050.25;;;18.94;40.92
50368;BME280;36281;34.132;-118.018;2022-10-26T03:35:34;100051.63;;;18.96;41.50
50368;BME280;36281;34.132;-118.018;2022-10-26T03:38:04;100050.78;;;18.91;41.38
50368;BME280;36281;34.132;-118.018;2022-10-26T03:40:32;100054.25;;;18.86;41.56
50368;BME280;36281;34.132;-118.018;2022-10-26T03:43:02;100052.59;;;18.75;42.17
50368;BME280;36281;34.132;-118.018;2022-10-26T03:45:30;100059.78;;;18.69;42.30
50368;BME280;36281;34.132;-118.018;2022-10-26T03:47:59;100056.47;;;18.57;42.27
50368;BME280;36281;34.132;-118.018;2022-10-26T03:50:27;100052.44;;;18.54;42.30
50368;BME280;36281;34.132;-118.018;2022-10-26T03:52:55;100055.09;;;18.49;42.93
50368;BME280;36281;34.132;-118.018;2022-10-26T03:55:25;100059.63;;;18.49;42.40
50368;BME280;36281;34.132;-118.018;2022-10-26T03:57:53;100060.41;;;18.44;42.33
50368;BME280;36281;34.132;-118.018;2022-10-26T04:00:21;100066.88;;;18.48;42.67
50368;BME280;36281;34.132;-118.018;2022-10-26T04:02:52;100078.19;;;18.50;42.72
50368;BME280;36281;34.132;-118.018;2022-10-26T04:05:21;100074.91;;;18.43;42.95
50368;BME280;36281;34.132;-118.018;2022-10-26T04:07:52;100078.34;;;18.39;42.54
50368;BME280;36281;34.132;-118.018;2022-10-26T04:10:21;100074.56;;;18.34;42.81
50368;BME280;36281;34.132;-118.018;2022-10-26T04:12:51;100076.41;;;18.29;43.10
50368;BME280;36281;34.132;-118.018;2022-10-26T04:15:19;100068.84;;;18.21;43.15
50368;BME280;36281;34.132;-118.018;2022-10-26T04:17:47;100085.44;;;18.18;42.90
50368;BME280;36281;34.132;-118.018;2022-10-26T04:20:16;100068.22;;;18.08;43.18
50368;BME280;36281;34.132;-118.018;2022-10-26T04:22:44;100077.34;;;18.13;42.81
50368;BME280;36281;34.132;-118.018;2022-10-26T04:25:12;100080.50;;;18.04;43.29
50368;BME280;36281;34.132;-118.018;2022-10-26T04:27:40;100082.09;;;18.00;43.54
50368;BME280;36281;34.132;-118.018;2022-10-26T04:30:11;100087.66;;;17.94;43.61
50368;BME280;36281;34.132;-118.018;2022-10-26T04:32:39;100095.94;;;17.92;44.17
50368;BME280;36281;34.132;-118.018;2022-10-26T04:35:07;100096.97;;;17.86;44.19
50368;BME280;36281;34.132;-118.018;2022-10-26T04:37:39;100098.31;;;17.89;44.50
50368;BME280;36281;34.132;-118.018;2022-10-26T04:40:07;100103.84;;;17.77;43.85
50368;BME280;36281;34.132;-118.018;2022-10-26T04:42:40;100099.78;;;17.74;44.32
50368;BME280;36281;34.132;-118.018;2022-10-26T04:45:10;100105.41;;;17.73;44.82
50368;BME280;36281;34.132;-118.018;2022-10-26T04:47:38;100108.81;;;17.68;45.45
50368;BME280;36281;34.132;-118.018;2022-10-26T04:50:07;100098.34;;;17.67;45.11
50368;BME280;36281;34.132;-118.018;2022-10-26T04:52:36;100103.34;;;17.58;45.17
50368;BME280;36281;34.132;-118.018;2022-10-26T04:55:04;100100.63;;;17.53;45.61
50368;BME280;36281;34.132;-118.018;2022-10-26T04:57:33;100105.16;;;17.52;45.77
50368;BME280;36281;34.132;-118.018;2022-10-26T05:00:02;100106.19;;;17.46;46.26
50368;BME280;36281;34.132;-118.018;2022-10-26T05:02:33;100110.63;;;17.36;46.05
50368;BME280;36281;34.132;-118.018;2022-10-26T05:05:01;100103.34;;;17.31;46.58
50368;BME280;36281;34.132;-118.018;2022-10-26T05:07:34;100107.63;;;17.32;46.70
50368;BME280;36281;34.132;-118.018;2022-10-26T05:10:02;100107.63;;;17.32;46.65
50368;BME280;36281;34.132;-118.018;2022-10-26T05:12:31;100117.53;;;17.31;46.53
50368;BME280;36281;34.132;-118.018;2022-10-26T05:14:59;100111.09;;;17.33;46.58
50368;BME280;36281;34.132;-118.018;2022-10-26T05:17:29;100117.19;;;17.28;46.46
50368;BME280;36281;34.132;-118.018;2022-10-26T05:19:59;100117.16;;;17.23;46.72
50368;BME280;36281;34.132;-118.018;2022-10-26T05:22:32;100119.00;;;17.22;46.85
50368;BME280;36281;34.132;-118.018;2022-10-26T05:25:00;100125.09;;;17.18;46.92
50368;BME280;36281;34.132;-118.018;2022-10-26T05:27:28;100123.19;;;17.13;47.39
50368;BME280;36281;34.132;-118.018;2022-10-26T05:29:57;100121.19;;;17.03;47.65
50368;BME280;36281;34.132;-118.018;2022-10-26T05:32:25;100126.94;;;16.95;47.59
50368;BME280;36281;34.132;-118.018;2022-10-26T05:34:53;100121.53;;;16.90;47.67
50368;BME280;36281;34.132;-118.018;2022-10-26T05:37:23;100117.16;;;16.84;48.05
50368;BME280;36281;34.132;-118.018;2022-10-26T05:39:51;100120.91;;;16.83;49.00
50368;BME280;36281;34.132;-118.018;2022-10-26T05:42:19;100116.91;;;16.86;49.12
50368;BME280;36281;34.132;-118.018;2022-10-26T05:44:48;100111.34;;;16.87;49.11
50368;BME280;36281;34.132;-118.018;2022-10-26T05:47:16;100111.56;;;16.86;49.05
50368;BME280;36281;34.132;-118.018;2022-10-26T05:49:44;100110.22;;;16.83;48.45
50368;BME280;36281;34.132;-118.018;2022-10-26T05:52:12;100114.50;;;16.84;48.36
50368;BME280;36281;34.132;-118.018;2022-10-26T05:54:42;100116.84;;;16.80;48.51
50368;BME280;36281;34.132;-118.018;2022-10-26T05:57:11;100114.69;;;16.77;48.67
50368;BME280;36281;34.132;-118.018;2022-10-26T05:59:39;100103.00;;;16.67;48.82
50368;BME280;36281;34.132;-118.018;2022-10-26T06:02:10;100103.66;;;16.57;49.49
50368;BME280;36281;34.132;-118.018;2022-10-26T06:04:41;100120.50;;;16.58;49.47
50368;BME280;36281;34.132;-118.018;2022-10-26T06:07:11;100107.53;;;16.49;49.59
50368;BME280;36281;34.132;-118.018;2022-10-26T06:09:40;100103.44;;;16.42;49.50
50368;BME280;36281;34.132;-118.018;2022-10-26T06:12:11;100105.22;;;16.36;49.82
50368;BME280;36281;34.132;-118.018;2022-10-26T06:14:42;100105.63;;;16.28;49.99
50368;BME280;36281;34.132;-118.018;2022-10-26T06:17:14;100102.53;;;16.19;50.27
50368;BME280;36281;34.132;-118.018;2022-10-26T06:19:49;100096.31;;;16.14;51.11
50368;BME280;36281;34.132;-118.018;2022-10-26T06:22:26;100093.63;;;16.14;51.08
50368;BME280;36281;34.132;-118.018;2022-10-26T06:24:58;100092.03;;;16.13;51.07
50368;BME280;36281;34.132;-118.018;2022-10-26T06:27:30;100094.69;;;16.13;51.12
50368;BME280;36281;34.132;-118.018;2022-10-26T06:30:02;100101.81;;;16.07;51.37
50368;BME280;36281;34.132;-118.018;2022-10-26T06:32:32;100103.09;;;16.05;51.09
50368;BME280;36281;34.132;-118.018;2022-10-26T06:35:04;100098.00;;;16.03;50.55
50368;BME280;36281;34.132;-118.018;2022-10-26T06:37:36;100104.41;;;16.02;50.24
50368;BME280;36281;34.132;-118.018;2022-10-26T06:40:06;100105.13;;;15.97;49.87
50368;BME280;36281;34.132;-118.018;2022-10-26T06:42:36;100106.22;;;15.85;50.59
50368;BME280;36281;34.132;-118.018;2022-10-26T06:45:05;100109.47;;;15.87;50.58
50368;BME280;36281;34.132;-118.018;2022-10-26T06:47:35;100093.13;;;15.83;50.41
50368;BME280;36281;34.132;-118.018;2022-10-26T06:50:08;100096.16;;;15.75;51.17
50368;BME280;36281;34.132;-118.018;2022-10-26T06:52:40;100097.78;;;15.76;50.84
50368;BME280;36281;34.132;-118.018;2022-10-26T06:55:12;100091.72;;;15.81;50.66
50368;BME280;36281;34.132;-118.018;2022-10-26T06:57:42;100087.78;;;15.83;50.51
50368;BME280;36281;34.132;-118.018;2022-10-26T07:00:13;100083.72;;;15.81;50.92
50368;BME280;36281;34.132;-118.018;2022-10-26T07:02:46;100087.59;;;15.73;50.62
50368;BME280;36281;34.132;-118.018;2022-10-26T07:05:18;100078.91;;;15.66;51.37
50368;BME280;36281;34.132;-118.018;2022-10-26T07:07:46;100075.22;;;15.67;50.95
50368;BME280;36281;34.132;-118.018;2022-10-26T07:10:15;100077.06;;;15.66;51.11
50368;BME280;36281;34.132;-118.018;2022-10-26T07:12:45;100085.91;;;15.67;51.29
50368;BME280;36281;34.132;-118.018;2022-10-26T07:15:13;100086.59;;;15.62;51.45
50368;BME280;36281;34.132;-118.018;2022-10-26T07:17:41;100086.59;;;15.62;51.08
50368;BME280;36281;34.132;-118.018;2022-10-26T07:20:10;100087.75;;;15.55;51.03
50368;BME280;36281;34.132;-118.018;2022-10-26T07:22:38;100086.06;;;15.48;51.46
50368;BME280;36281;34.132;-118.018;2022-10-26T07:25:07;100087.09;;;15.47;51.69
50368;BME280;36281;34.132;-118.018;2022-10-26T07:27:35;100085.38;;;15.41;51.63
50368;BME280;36281;34.132;-118.018;2022-10-26T07:30:06;100089.59;;;15.37;51.71
50368;BME280;36281;34.132;-118.018;2022-10-26T07:32:34;100088.88;;;15.30;51.95
50368;BME280;36281;34.132;-118.018;2022-10-26T07:35:02;100087.53;;;15.28;52.34
50368;BME280;36281;34.132;-118.018;2022-10-26T07:37:31;100086.47;;;15.29;52.58
50368;BME280;36281;34.132;-118.018;2022-10-26T07:39:59;100086.22;;;15.30;52.72
50368;BME280;36281;34.132;-118.018;2022-10-26T07:42:31;100089.47;;;15.32;52.60
50368;BME280;36281;34.132;-118.018;2022-10-26T07:44:59;100081.59;;;15.25;52.71
50368;BME280;36281;34.132;-118.018;2022-10-26T07:47:29;100086.63;;;15.22;53.20
50368;BME280;36281;34.132;-118.018;2022-10-26T07:49:57;100078.16;;;15.13;53.34
50368;BME280;36281;34.132;-118.018;2022-10-26T07:52:26;100082.59;;;15.08;53.96
50368;BME280;36281;34.132;-118.018;2022-10-26T07:54:54;100079.13;;;15.07;54.25
50368;BME280;36281;34.132;-118.018;2022-10-26T07:57:22;100074.59;;;15.08;54.80
50368;BME280;36281;34.132;-118.018;2022-10-26T07:59:50;100077.16;;;15.03;54.93
50368;BME280;36281;34.132;-118.018;2022-10-26T08:02:18;100061.03;;;14.97;54.34
50368;BME280;36281;34.132;-118.018;2022-10-26T08:04:49;100054.31;;;14.95;54.51
50368;BME280;36281;34.132;-118.018;2022-10-26T08:07:17;100045.59;;;14.99;54.53
50368;BME280;36281;34.132;-118.018;2022-10-26T08:09:46;100044.44;;;14.95;54.76
50368;BME280;36281;34.132;-118.018;2022-10-26T08:12:15;100051.88;;;14.93;55.06
50368;BME280;36281;34.132;-118.018;2022-10-26T08:14:43;100056.72;;;14.96;54.64
50368;BME280;36281;34.132;-118.018;2022-10-26T08:17:11;100050.38;;;14.97;54.45
50368;BME280;36281;34.132;-118.018;2022-10-26T08:19:39;100054.66;;;14.98;54.33
50368;BME280;36281;34.132;-118.018;2022-10-26T08:22:09;100055.13;;;14.95;54.22
50368;BME280;36281;34.132;-118.018;2022-10-26T08:24:38;100046.56;;;14.93;54.29
50368;BME280;36281;34.132;-118.018;2022-10-26T08:27:06;100042.50;;;14.91;54.59
50368;BME280;36281;34.132;-118.018;2022-10-26T08:29:34;100040.06;;;14.89;54.71
50368;BME280;36281;34.132;-118.018;2022-10-26T08:32:02;100037.75;;;14.81;54.59
50368;BME280;36281;34.132;-118.018;2022-10-26T08:34:30;100030.94;;;14.73;54.42
50368;BME280;36281;34.132;-118.018;2022-10-26T08:36:59;100036.06;;;14.63;54.97
50368;BME280;36281;34.132;-118.018;2022-10-26T08:39:29;100038.25;;;14.55;55.03
50368;BME280;36281;34.132;-118.018;2022-10-26T08:42:00;100035.84;;;14.53;55.36
50368;BME280;36281;34.132;-118.018;2022-10-26T08:44:32;100035.03;;;14.53;55.25
50368;BME280;36281;34.132;-118.018;2022-10-26T08:47:04;100030.97;;;14.50;55.58
50368;BME280;36281;34.132;-118.018;2022-10-26T08:49:36;100038.00;;;14.44;55.69
50368;BME280;36281;34.132;-118.018;2022-10-26T08:52:08;100038.00;;;14.44;56.10
50368;BME280;36281;34.132;-118.018;2022-10-26T08:54:41;100039.16;;;14.37;56.05
50368;BME280;36281;34.132;-118.018;2022-10-26T08:57:15;100037.09;;;14.39;55.61
50368;BME280;36281;34.132;-118.018;2022-10-26T08:59:45;100054.13;;;14.38;55.47
50368;BME280;36281;34.132;-118.018;2022-10-26T09:02:15;100058.53;;;14.32;55.63
50368;BME280;36281;34.132;-118.018;2022-10-26T09:04:44;100057.25;;;14.23;55.69
50368;BME280;36281;34.132;-118.018;2022-10-26T09:07:16;100050.41;;;14.15;55.95
50368;BME280;36281;34.132;-118.018;2022-10-26T09:09:50;100050.75;;;14.07;56.42
50368;BME280;36281;34.132;-118.018;2022-10-26T09:12:23;100048.19;;;14.01;56.85
50368;BME280;36281;34.132;-118.018;2022-10-26T09:14:59;100043.34;;;13.98;57.03
50368;BME280;36281;34.132;-118.018;2022-10-26T09:17:32;100036.34;;;13.96;57.27
50368;BME280;36281;34.132;-118.018;2022-10-26T09:20:12;100042.97;;;13.94;57.19
50368;BME280;36281;34.132;-118.018;2022-10-26T09:22:45;100050.16;;;13.93;57.53
50368;BME280;36281;34.132;-118.018;2022-10-26T09:25:20;100047.00;;;13.85;58.02
50368;BME280;36281;34.132;-118.018;2022-10-26T09:27:49;100059.63;;;13.89;57.89
50368;BME280;36281;34.132;-118.018;2022-10-26T09:30:19;100058.13;;;13.93;57.13
50368;BME280;36281;34.132;-118.018;2022-10-26T09:32:48;100057.53;;;13.91;57.54
50368;BME280;36281;34.132;-118.018;2022-10-26T09:35:18;100062.28;;;13.89;57.89
50368;BME280;36281;34.132;-118.018;2022-10-26T09:37:48;100048.72;;;13.79;58.67
50368;BME280;36281;34.132;-118.018;2022-10-26T09:40:20;100052.09;;;13.86;58.66
50368;BME280;36281;34.132;-118.018;2022-10-26T09:42:50;100044.09;;;13.86;58.82
50368;BME280;36281;34.132;-118.018;2022-10-26T09:45:23;100040.97;;;13.78;58.69
50368;BME280;36281;34.132;-118.018;2022-10-26T09:47:52;100044.09;;;13.75;59.23
50368;BME280;36281;34.132;-118.018;2022-10-26T09:50:24;100042.09;;;13.70;58.89
50368;BME280;36281;34.132;-118.018;2022-10-26T09:52:54;100040.81;;;13.61;58.88
50368;BME280;36281;34.132;-118.018;2022-10-26T09:55:24;100041.03;;;13.59;59.07
50368;BME280;36281;34.132;-118.018;2022-10-26T09:57:55;100041.28;;;13.58;59.23
50368;BME280;36281;34.132;-118.018;2022-10-26T10:00:24;100036.53;;;13.60;59.39
50368;BME280;36281;34.132;-118.018;2022-10-26T10:02:53;100031.31;;;13.65;59.26
50368;BME280;36281;34.132;-118.018;2022-10-26T10:05:22;100037.81;;;13.69;59.19
50368;BME280;36281;34.132;-118.018;2022-10-26T10:08:15;100026.13;;;13.70;59.39
50368;BME280;36281;34.132;-118.018;2022-10-26T10:10:56;100030.88;;;13.68;59.48
50368;BME280;36281;34.132;-118.018;2022-10-26T10:13:26;100030.16;;;13.61;60.06
50368;BME280;36281;34.132;-118.018;2022-10-26T10:15:55;100035.72;;;13.59;60.45
50368;BME280;36281;34.132;-118.018;2022-10-26T10:18:24;100027.06;;;13.64;60.26
50368;BME280;36281;34.132;-118.018;2022-10-26T10:20:53;100026.44;;;13.62;59.42
50368;BME280;36281;34.132;-118.018;2022-10-26T10:23:29;100017.31;;;13.58;59.31
50368;BME280;36281;34.132;-118.018;2022-10-26T10:26:00;100022.16;;;13.49;59.47
50368;BME280;36281;34.132;-118.018;2022-10-26T10:28:29;100026.06;;;13.47;59.78
50368;BME280;36281;34.132;-118.018;2022-10-26T10:30:57;100013.13;;;13.50;59.81
50368;BME280;36281;34.132;-118.018;2022-10-26T10:36:13;100021.09;;;13.50;59.66
50368;BME280;36281;34.132;-118.018;2022-10-26T10:38:43;100023.63;;;13.45;59.34
50368;BME280;36281;34.132;-118.018;2022-10-26T10:41:17;100025.25;;;13.46;59.56
50368;BME280;36281;34.132;-118.018;2022-10-26T10:43:46;100027.53;;;13.42;59.77
50368;BME280;36281;34.132;-118.018;2022-10-26T10:46:19;100018.41;;;13.38;60.31
50368;BME280;36281;34.132;-118.018;2022-10-26T10:48:50;100017.91;;;13.30;60.45
50368;BME280;36281;34.132;-118.018;2022-10-26T10:51:19;100020.03;;;13.21;60.87
50368;BME280;36281;34.132;-118.018;2022-10-26T10:53:49;100017.63;;;13.19;60.93
50368;BME280;36281;34.132;-118.018;2022-10-26T10:56:22;100022.19;;;13.12;61.32
50368;BME280;36281;34.132;-118.018;2022-10-26T10:58:56;100021.91;;;13.02;60.57
50368;BME280;36281;34.132;-118.018;2022-10-26T11:01:29;100020.53;;;13.00;60.82
50368;BME280;36281;34.132;-118.018;2022-10-26T11:04:05;100022.59;;;12.98;61.13
50368;BME280;36281;34.132;-118.018;2022-10-26T11:06:37;100015.22;;;13.00;60.98
50368;BME280;36281;34.132;-118.018;2022-10-26T11:09:07;100027.84;;;13.04;61.16
50368;BME280;36281;34.132;-118.018;2022-10-26T11:11:38;100024.13;;;13.05;60.76
50368;BME280;36281;34.132;-118.018;2022-10-26T11:14:10;100031.06;;;13.06;60.61
50368;BME280;36281;34.132;-118.018;2022-10-26T11:16:42;100030.25;;;13.06;60.57
50368;BME280;36281;34.132;-118.018;2022-10-26T11:19:14;100030.25;;;13.06;60.88
50368;BME280;36281;34.132;-118.018;2022-10-26T11:21:45;100030.69;;;13.03;60.47
50368;BME280;36281;34.132;-118.018;2022-10-26T11:24:17;100028.03;;;13.03;60.63
50368;BME280;36281;34.132;-118.018;2022-10-26T11:26:49;100031.16;;;13.00;60.98
50368;BME280;36281;34.132;-118.018;2022-10-26T11:29:24;100033.59;;;13.01;61.25
50368;BME280;36281;34.132;-118.018;2022-10-26T11:32:00;100032.53;;;13.02;60.55
50368;BME280;36281;34.132;-118.018;2022-10-26T11:34:32;100035.19;;;13.02;61.04
50368;BME280;36281;34.132;-118.018;2022-10-26T11:37:04;100030.69;;;13.03;60.38
50368;BME280;36281;34.132;-118.018;2022-10-26T11:39:37;100027.47;;;13.01;60.38
50368;BME280;36281;34.132;-118.018;2022-10-26T11:42:10;100030.34;;;12.99;60.43
50368;BME280;36281;34.132;-118.018;2022-10-26T11:44:43;100035.44;;;13.01;60.51
50368;BME280;36281;34.132;-118.018;2022-10-26T11:47:18;100039.22;;;12.93;60.57
50368;BME280;36281;34.132;-118.018;2022-10-26T11:49:56;100049.53;;;12.83;60.43
50368;BME280;36281;34.132;-118.018;2022-10-26T11:52:29;100046.06;;;12.82;60.98
50368;BME280;36281;34.132;-118.018;2022-10-26T11:55:01;100039.94;;;12.82;61.21
50368;BME280;36281;34.132;-118.018;2022-10-26T11:57:33;100044.22;;;12.83;60.80
50368;BME280;36281;34.132;-118.018;2022-10-26T12:00:03;100046.06;;;12.82;60.76
50368;BME280;36281;34.132;-118.018;2022-10-26T12:02:32;100047.34;;;12.80;60.79
50368;BME280;36281;34.132;-118.018;2022-10-26T12:05:07;100048.38;;;12.79;60.89
50368;BME280;36281;34.132;-118.018;2022-10-26T12:07:37;100051.69;;;12.74;61.07
50368;BME280;36281;34.132;-118.018;2022-10-26T12:10:06;100052.59;;;12.68;60.98
50368;BME280;36281;34.132;-118.018;2022-10-26T12:12:40;100040.38;;;12.60;61.11
50368;BME280;36281;34.132;-118.018;2022-10-26T12:15:16;100065.50;;;12.64;61.11
50368;BME280;36281;34.132;-118.018;2022-10-26T12:17:51;100058.91;;;12.67;61.17
50368;BME280;36281;34.132;-118.018;2022-10-26T12:20:34;100057.28;;;12.66;61.18
50368;BME280;36281;34.132;-118.018;2022-10-26T12:23:07;100060.75;;;12.66;60.53
50368;BME280;36281;34.132;-118.018;2022-10-26T12:25:41;100058.91;;;12.67;60.26
50368;BME280;36281;34.132;-118.018;2022-10-26T12:28:32;100062.84;;;12.64;60.12
50368;BME280;36281;34.132;-118.018;2022-10-26T12:34:01;100067.19;;;12.59;60.51
50368;BME280;36281;34.132;-118.018;2022-10-26T12:39:31;100061.50;;;12.55;60.69
50368;BME280;36281;34.132;-118.018;2022-10-26T12:42:09;100060.97;;;12.47;60.26
50368;BME280;36281;34.132;-118.018;2022-10-26T12:50:28;100072.31;;;12.35;60.71
50368;BME280;36281;34.132;-118.018;2022-10-26T12:52:56;100074.53;;;12.38;60.71